PWSweather.com
Personal Weather Stations
Station Observations
KVAGLENALL
West Henrico, Glen Allen, VA 23060-6503

West HenricoGlen Allen, VA 23060-6503

Lat: 37.6554, Lon: -77.5693

Elevation: 273

Station Type: Davis Vantage Pro II

www.glenallenweather.com

High Low Average
Temperature 58.0°F14.4°C 37.4°F3.0°C 48.3°F9.1°C
Dew Point 44.4°F6.9°C 34.1°F1.2°C 38.0°F3.3°C
Winds 10.0 mph 16.1 kmh Calm Calm 2.0 mph S3.2 kmh S
Wind Gusts 16.2 mph26.1 kmh -- 5.0 mph8.0 kmh
Humidity 91% 48% 69%
Pressure 30.29 in1025.7 mb 29.86 in1011.2 mb -
Precipitation 0.00 in0.0 mm - -
Hour Temp Dew Point Humidity Winds Wind Gusts Pressure Precip Precip Rate Daily Precip Total
12:00 AM 52.5°F11.4°C 44.4°F6.9°C 74% 3.0 mph SW4.8 kmh SW 8.1 mph13.0 kmh 29.86 in1011.2 mb 0.01 in0.3 mm 0.00 in0.0 mm 0.01 in0.3 mm
12:30 AM 50.3°F10.2°C 39.0°F3.9°C 65% 3.0 mph N4.8 kmh N 12.1 mph19.5 kmh 29.90 in1012.5 mb 0.00 in0.0 mm 0.00 in0.0 mm 0.01 in0.3 mm
01:30 AM 47.8°F8.8°C 36.7°F2.6°C 65% 10.0 mph S16.1 kmh S 12.1 mph19.5 kmh 29.95 in1014.2 mb 0.00 in0.0 mm 0.00 in0.0 mm 0.01 in0.3 mm
02:30 AM 46.2°F7.9°C 35.5°F1.9°C 66% 4.0 mph SE6.4 kmh SE 4.0 mph6.4 kmh 30.00 in1015.9 mb 0.00 in0.0 mm 0.00 in0.0 mm 0.01 in0.3 mm
03:30 AM 43.6°F6.4°C 34.9°F1.6°C 71% 1.0 mph WSW1.6 kmh WSW 2.0 mph3.2 kmh 30.05 in1017.6 mb 0.00 in0.0 mm 0.00 in0.0 mm 0.01 in0.3 mm
04:30 AM 41.7°F5.4°C 35.4°F1.9°C 78% 2.0 mph WNW3.2 kmh WNW 8.1 mph13.0 kmh 30.08 in1018.6 mb 0.00 in0.0 mm 0.00 in0.0 mm 0.01 in0.3 mm
05:30 AM 40.5°F4.7°C 34.2°F1.2°C 78% Calm Calm 2.0 mph3.2 kmh 30.13 in1020.3 mb 0.00 in0.0 mm 0.00 in0.0 mm 0.01 in0.3 mm
06:30 AM 39.5°F4.2°C 34.2°F1.2°C 81% 1.0 mph SW1.6 kmh SW 2.0 mph3.2 kmh 30.16 in1021.3 mb 0.00 in0.0 mm 0.00 in0.0 mm 0.01 in0.3 mm
07:00 AM 39.8°F4.3°C 34.1°F1.2°C 80% 2.0 mph SSW3.2 kmh SSW 4.0 mph6.4 kmh 30.17 in1021.7 mb 0.00 in0.0 mm 0.00 in0.0 mm 0.01 in0.3 mm
08:00 AM 46.6°F8.1°C 37.7°F3.2°C 71% 4.0 mph SW6.4 kmh SW 6.1 mph9.8 kmh 30.20 in1022.7 mb 0.00 in0.0 mm 0.00 in0.0 mm 0.01 in0.3 mm
09:00 AM 51.3°F10.7°C 37.9°F3.3°C 60% 2.0 mph ESE3.2 kmh ESE 5.1 mph8.2 kmh 30.21 in1023.0 mb 0.00 in0.0 mm 0.00 in0.0 mm 0.01 in0.3 mm
10:00 AM 53.7°F12.1°C 38.4°F3.6°C 56% 3.0 mph E4.8 kmh E 10.1 mph16.3 kmh 30.22 in1023.4 mb 0.00 in0.0 mm 0.00 in0.0 mm 0.01 in0.3 mm
10:30 AM 54.9°F12.7°C 39.9°F4.4°C 57% 4.0 mph NNE6.4 kmh NNE 7.1 mph11.4 kmh 30.24 in1024.0 mb 0.00 in0.0 mm 0.00 in0.0 mm 0.01 in0.3 mm
11:30 AM 56.5°F13.6°C 41.5°F5.3°C 57% 3.0 mph NNW4.8 kmh NNW 6.1 mph9.8 kmh 30.24 in1024.0 mb 0.00 in0.0 mm 0.00 in0.0 mm 0.01 in0.3 mm
12:00 PM 56.9°F13.8°C 42.3°F5.7°C 58% 5.0 mph SSE8.0 kmh SSE 5.1 mph8.2 kmh 30.24 in1024.0 mb 0.00 in0.0 mm 0.00 in0.0 mm 0.01 in0.3 mm
12:30 PM 57.3°F14.1°C 37.8°F3.2°C 48% 4.0 mph SW6.4 kmh SW 16.2 mph26.1 kmh 30.23 in1023.7 mb 0.00 in0.0 mm 0.00 in0.0 mm 0.01 in0.3 mm
01:30 PM 58.0°F14.4°C 39.0°F3.9°C 49% 3.0 mph NW4.8 kmh NW 5.1 mph8.2 kmh 30.22 in1023.4 mb 0.00 in0.0 mm 0.00 in0.0 mm 0.01 in0.3 mm
02:00 PM 57.7°F14.3°C 38.2°F3.4°C 48% 2.0 mph NW3.2 kmh NW 8.1 mph13.0 kmh 30.22 in1023.4 mb 0.00 in0.0 mm 0.00 in0.0 mm 0.01 in0.3 mm
02:30 PM 57.3°F14.1°C 38.3°F3.5°C 49% 2.0 mph N3.2 kmh N 3.0 mph4.8 kmh 30.22 in1023.4 mb 0.00 in0.0 mm 0.00 in0.0 mm 0.01 in0.3 mm
03:00 PM 56.3°F13.5°C 36.9°F2.7°C 48% 1.0 mph WNW1.6 kmh WNW 2.0 mph3.2 kmh 30.23 in1023.7 mb 0.00 in0.0 mm 0.00 in0.0 mm 0.01 in0.3 mm
03:30 PM 55.2°F12.9°C 38.8°F3.8°C 54% 4.0 mph NE6.4 kmh NE 5.1 mph8.2 kmh 30.23 in1023.7 mb 0.00 in0.0 mm 0.00 in0.0 mm 0.01 in0.3 mm
04:00 PM 54.1°F12.3°C 40.1°F4.5°C 59% Calm Calm 2.0 mph3.2 kmh 30.24 in1024.0 mb 0.00 in0.0 mm 0.00 in0.0 mm 0.01 in0.3 mm
05:00 PM 49.9°F9.9°C 39.7°F4.3°C 68% Calm Calm -- 30.25 in1024.4 mb 0.00 in0.0 mm 0.00 in0.0 mm 0.01 in0.3 mm
05:30 PM 47.9°F8.8°C 39.7°F4.3°C 73% Calm Calm -- 30.25 in1024.4 mb 0.00 in0.0 mm 0.00 in0.0 mm 0.01 in0.3 mm
06:30 PM 44.8°F7.1°C 39.7°F4.3°C 82% Calm Calm -- 30.26 in1024.7 mb 0.00 in0.0 mm 0.00 in0.0 mm 0.01 in0.3 mm
07:00 PM 43.8°F6.6°C 39.9°F4.4°C 86% Calm Calm -- 30.27 in1025.1 mb 0.00 in0.0 mm 0.00 in0.0 mm 0.01 in0.3 mm
08:00 PM 41.7°F5.4°C 38.7°F3.7°C 89% Calm Calm 2.0 mph3.2 kmh 30.27 in1025.1 mb 0.00 in0.0 mm 0.00 in0.0 mm 0.01 in0.3 mm
08:30 PM 41.7°F5.4°C 37.8°F3.2°C 86% Calm Calm 1.0 mph1.6 kmh 30.28 in1025.4 mb 0.00 in0.0 mm 0.00 in0.0 mm 0.01 in0.3 mm
08:45 PM 41.2°F5.1°C 37.1°F2.8°C 85% Calm Calm -- 30.28 in1025.4 mb 0.00 in0.0 mm 0.00 in0.0 mm 0.01 in0.3 mm
09:30 PM 41.0°F5.0°C 37.4°F3.0°C 87% 3.0 mph NNE4.8 kmh NNE 3.0 mph4.8 kmh 30.29 in1025.7 mb 0.00 in0.0 mm 0.00 in0.0 mm 0.01 in0.3 mm
10:30 PM 40.0°F4.4°C 36.5°F2.5°C 87% 1.0 mph N1.6 kmh N 2.0 mph3.2 kmh 30.29 in1025.7 mb 0.00 in0.0 mm 0.00 in0.0 mm 0.01 in0.3 mm
11:30 PM 37.4°F3.0°C 35.0°F1.7°C 91% 1.0 mph N1.6 kmh N 1.0 mph1.6 kmh 30.28 in1025.4 mb 0.00 in0.0 mm 0.00 in0.0 mm 0.01 in0.3 mm